Time;durP1;ratioP1;P1;durP2;ratioP2;P2;SDS_P1;SDS_P2;PMS_P1;PMS_P2;Temp;Humidity;BMP_temperature;BMP_pressure;BME280_temperature;BME280_humidity;BME280_pressure;Samples;Min_cycle;Max_cycle;Signal;HPM_P1;HPM_P2
2023/11/09 00:00:33;;;;;;;;;2.00;2.00;;;;;16.13;100.00;99921.69;2105216;28;46413;-50
2023/11/09 00:01:33;;;;;;;;;2.00;1.00;;;;;16.14;100.00;99926.13;2106104;28;46475;-51
2023/11/09 00:02:34;;;;;;;;;3.33;2.67;;;;;16.15;100.00;99909.97;2104887;28;45941;-49
2023/11/09 00:03:36;;;;;;;;;2.75;2.75;;;;;16.15;100.00;99912.63;2079519;28;45365;-50
2023/11/09 00:04:37;;;;;;;;;1.75;1.75;;;;;16.16;100.00;99910.81;2099112;28;46189;-51
2023/11/09 00:05:38;;;;;;;;;1.75;1.75;;;;;16.17;100.00;99904.50;2096962;28;46632;-52
2023/11/09 00:06:38;;;;;;;;;2.33;1.33;;;;;16.16;100.00;99909.00;2062433;28;46362;-50
2023/11/09 00:07:39;;;;;;;;;0.67;0.67;;;;;16.17;100.00;99910.72;2094316;27;45096;-50
2023/11/09 00:08:43;;;;;;;;;1.67;1.67;;;;;16.16;100.00;99911.69;2066585;27;46060;-48
2023/11/09 00:09:44;;;;;;;;;0.75;0.75;;;;;16.17;100.00;99901.84;2071076;28;46469;-51
2023/11/09 00:10:44;;;;;;;;;1.67;1.67;;;;;16.17;100.00;99900.03;2074448;28;46462;-51
2023/11/09 00:11:46;;;;;;;;;0.67;0.67;;;;;16.17;100.00;99908.06;2062354;28;46350;-51
2023/11/09 00:12:48;;;;;;;;;2.75;1.00;;;;;16.18;100.00;99904.41;2080627;28;46303;-50
2023/11/09 00:13:50;;;;;;;;;1.00;1.00;;;;;16.17;100.00;99902.69;2097473;27;46449;-54
2023/11/09 00:14:50;;;;;;;;;1.25;1.25;;;;;16.16;100.00;99900.13;2066967;28;46857;-49
2023/11/09 00:15:50;;;;;;;;;2.00;1.33;;;;;16.15;100.00;99895.72;2063320;28;45550;-49
2023/11/09 00:16:51;;;;;;;;;1.67;1.67;;;;;16.14;100.00;99897.53;2079283;28;46393;-50
2023/11/09 00:17:51;;;;;;;;;2.00;1.00;;;;;16.15;100.00;99893.91;2095141;27;46276;-50
2023/11/09 00:18:52;;;;;;;;;3.33;3.33;;;;;16.15;100.00;99887.69;2094369;28;46710;-48
2023/11/09 00:19:52;;;;;;;;;2.75;1.75;;;;;16.12;100.00;99890.50;2078716;28;46571;-51
2023/11/09 00:20:53;;;;;;;;;1.33;1.33;;;;;16.11;100.00;99892.31;2064245;28;47040;-49
2023/11/09 00:21:53;;;;;;;;;1.67;1.67;;;;;16.12;100.00;99888.69;2083164;28;46651;-47
2023/11/09 00:22:53;;;;;;;;;1.67;1.67;;;;;16.09;100.00;99886.19;2089643;28;46589;-50
2023/11/09 00:23:55;;;;;;;;;1.67;1.67;;;;;16.09;100.00;99888.88;2064170;28;46769;-51
2023/11/09 00:24:55;;;;;;;;;2.50;2.00;;;;;16.07;100.00;99896.16;2070317;28;46416;-53
2023/11/09 00:25:57;;;;;;;;;1.67;1.67;;;;;16.06;100.00;99883.72;2096032;28;46230;-50
2023/11/09 00:26:58;;;;;;;;;1.75;1.25;;;;;16.07;100.00;99887.25;2090149;28;45604;-53
2023/11/09 00:27:58;;;;;;;;;2.00;1.75;;;;;16.06;100.00;99889.06;2080553;28;46391;-52
2023/11/09 00:28:59;;;;;;;;;1.67;1.67;;;;;16.05;100.00;99883.81;2099714;28;46416;-50
2023/11/09 00:29:59;;;;;;;;;1.33;1.33;;;;;16.03;100.00;99889.25;2079504;28;46211;-54
2023/11/09 00:30:59;;;;;;;;;1.33;1.33;;;;;16.03;100.00;99872.34;2091539;28;46304;-49
2023/11/09 00:32:00;;;;;;;;;3.67;1.33;;;;;16.01;100.00;99875.09;2096667;28;46623;-51
2023/11/09 00:33:01;;;;;;;;;2.25;2.25;;;;;16.02;100.00;99879.50;2082999;28;46419;-51
2023/11/09 00:34:03;;;;;;;;;0.67;0.67;;;;;16.01;100.00;99872.41;2098047;28;46864;-52
2023/11/09 00:35:05;;;;;;;;;1.75;1.75;;;;;16.01;100.00;99888.47;2090841;28;46419;-51
2023/11/09 00:36:05;;;;;;;;;1.00;1.00;;;;;16.02;100.00;99870.59;2078132;28;46353;-51
2023/11/09 00:37:06;;;;;;;;;0.33;0.33;;;;;16.03;100.00;99878.53;2099335;28;46285;-52
2023/11/09 00:38:07;;;;;;;;;2.33;1.67;;;;;16.01;100.00;99877.78;2069690;28;47103;-53
2023/11/09 00:39:12;;;;;;;;;2.50;1.25;;;;;16.02;100.00;99878.63;2089200;28;46764;-52
2023/11/09 00:40:12;;;;;;;;;1.00;1.00;;;;;15.97;100.00;99878.88;2097672;28;46633;-50
2023/11/09 00:41:14;;;;;;;;;1.33;1.33;;;;;16.00;100.00;99867.13;2078523;28;46174;-48
2023/11/09 00:42:15;;;;;;;;;0.75;0.75;;;;;16.00;100.00;99870.66;2092138;28;46842;-49
2023/11/09 00:43:15;;;;;;;;;4.00;2.33;;;;;15.99;100.00;99865.41;2091624;28;46651;-52
2023/11/09 00:44:15;;;;;;;;;2.00;2.00;;;;;16.01;100.00;99861.72;2082508;27;46583;-52
2023/11/09 00:45:17;;;;;;;;;1.33;1.33;;;;;16.00;100.00;99862.63;2105393;28;46618;-54
2023/11/09 00:46:18;;;;;;;;;0.25;0.25;;;;;16.01;100.00;99861.72;2075018;28;46800;-52
2023/11/09 00:47:18;;;;;;;;;3.00;3.00;;;;;16.02;100.00;99867.94;2091044;28;45334;-52
2023/11/09 00:48:19;;;;;;;;;1.67;1.67;;;;;16.01;100.00;99871.56;2099187;28;46283;-49
2023/11/09 00:49:19;;;;;;;;;1.67;1.67;;;;;16.00;100.00;99867.13;2084369;28;46261;-51
2023/11/09 00:50:20;;;;;;;;;2.67;2.67;;;;;16.01;100.00;99866.22;2099160;28;45908;-50
2023/11/09 00:51:20;;;;;;;;;1.67;1.67;;;;;16.01;100.00;99868.88;2092454;28;45946;-50
2023/11/09 00:52:20;;;;;;;;;0.67;0.67;;;;;16.01;100.00;99866.22;2082611;28;46678;-45
2023/11/09 00:53:21;;;;;;;;;1.00;1.00;;;;;16.02;100.00;99866.13;2105517;27;46703;-49
2023/11/09 00:54:21;;;;;;;;;2.67;1.67;;;;;16.03;100.00;99858.94;2070947;28;46372;-50
2023/11/09 00:55:22;;;;;;;;;2.67;2.67;;;;;16.05;100.00;99860.59;2061380;28;46663;-54
2023/11/09 00:56:22;;;;;;;;;0.67;0.67;;;;;16.04;100.00;99860.66;2098544;28;46607;-50
2023/11/09 00:57:25;;;;;;;;;1.00;1.00;;;;;16.03;100.00;99856.28;2087324;28;46499;-55
2023/11/09 00:58:25;;;;;;;;;2.00;2.00;;;;;16.03;100.00;99856.28;2101254;28;46777;-51
2023/11/09 00:59:26;;;;;;;;;0.67;0.67;;;;;16.01;100.00;99845.66;2065937;28;46715;-53
2023/11/09 01:00:27;;;;;;;;;0.67;0.67;;;;;16.00;100.00;99843.03;2067400;28;46722;-52
2023/11/09 01:01:27;;;;;;;;;3.00;3.00;;;;;15.99;100.00;99854.69;2105287;28;46553;-49
2023/11/09 01:02:33;;;;;;;;;1.00;1.00;;;;;15.98;100.00;99843.13;2088803;28;46458;-54
2023/11/09 01:03:34;;;;;;;;;1.00;1.00;;;;;15.97;100.00;99849.44;2091975;28;46276;-52
2023/11/09 01:04:35;;;;;;;;;0.67;0.67;;;;;15.96;100.00;99853.06;2102624;28;46869;-50
2023/11/09 01:05:35;;;;;;;;;1.00;1.00;;;;;15.95;100.00;99843.31;2085288;28;46858;-50
2023/11/09 01:06:36;;;;;;;;;0.67;0.67;;;;;15.97;100.00;99843.22;2098003;28;46516;-46
2023/11/09 01:07:36;;;;;;;;;0.67;0.67;;;;;15.97;100.00;99848.59;2096534;28;46600;-51
2023/11/09 01:08:38;;;;;;;;;0.00;0.00;;;;;15.99;100.00;99846.69;2096579;28;45704;-51
2023/11/09 01:09:38;;;;;;;;;0.75;0.75;;;;;15.96;100.00;99847.72;2068324;28;45749;-48
2023/11/09 01:10:38;;;;;;;;;1.33;1.33;;;;;15.96;100.00;99854.88;2061885;28;46826;-52
2023/11/09 01:11:40;;;;;;;;;1.67;0.67;;;;;15.96;100.00;99846.84;2064986;28;46674;-50
2023/11/09 01:12:40;;;;;;;;;1.75;1.75;;;;;15.97;100.00;99840.56;2104863;28;46650;-49
2023/11/09 01:13:40;;;;;;;;;1.67;1.67;;;;;15.98;100.00;99850.31;2086477;27;46641;-48
2023/11/09 01:14:43;;;;;;;;;1.00;1.00;;;;;15.98;100.00;99844.94;2062675;28;46190;-50
2023/11/09 01:15:44;;;;;;;;;1.75;0.50;;;;;15.98;100.00;99845.81;2066364;28;46657;-47
2023/11/09 01:16:44;;;;;;;;;1.00;1.00;;;;;15.99;100.00;99850.22;2056520;28;46675;-47
2023/11/09 01:18:04;;;;;;;;;1.00;1.00;;;;;16.00;100.00;99843.03;2072479;28;46503;-51
2023/11/09 01:19:05;;;;;;;;;0.75;0.75;;;;;15.98;100.00;99844.94;2084319;27;47389;-51
2023/11/09 01:20:07;;;;;;;;;0.67;0.67;;;;;15.94;100.00;99846.09;2098721;28;46439;-48
2023/11/09 01:21:07;;;;;;;;;1.25;1.25;;;;;15.94;100.00;99846.94;2079318;28;46902;-51
2023/11/09 01:22:07;;;;;;;;;0.33;0.33;;;;;15.94;100.00;99841.59;2090774;28;46697;-49
2023/11/09 01:23:09;;;;;;;;;1.00;1.00;;;;;15.93;100.00;99844.38;2092796;28;46562;-50
2023/11/09 01:24:09;;;;;;;;;2.25;2.25;;;;;15.90;100.00;99845.41;2078323;28;46374;-52
2023/11/09 01:25:10;;;;;;;;;1.00;1.00;;;;;15.87;100.00;99851.78;2065548;28;46836;-49
2023/11/09 01:26:10;;;;;;;;;2.00;2.00;;;;;15.86;100.00;99838.50;2067291;28;46590;-52
2023/11/09 01:27:10;;;;;;;;;2.00;1.00;;;;;15.87;100.00;99848.25;2067917;28;46835;-52
2023/11/09 01:28:11;;;;;;;;;1.67;1.67;;;;;15.85;100.00;99847.47;2095466;28;46221;-53
2023/11/09 01:29:11;;;;;;;;;2.00;2.00;;;;;15.87;100.00;99842.88;2078874;28;46947;-49
2023/11/09 01:30:11;;;;;;;;;3.33;2.00;;;;;15.89;100.00;99843.69;2091539;28;46433;-50
2023/11/09 01:31:12;;;;;;;;;2.67;1.67;;;;;15.88;100.00;99848.19;2091858;28;46135;-49
2023/11/09 01:32:12;;;;;;;;;1.33;1.33;;;;;15.86;100.00;99836.69;2078541;28;46098;-47
2023/11/09 01:33:13;;;;;;;;;2.00;2.00;;;;;15.87;100.00;99841.06;2097624;28;46246;-47
2023/11/09 01:34:13;;;;;;;;;0.67;0.67;;;;;15.87;100.00;99840.22;2076671;28;46869;-48
2023/11/09 01:35:13;;;;;;;;;1.00;1.00;;;;;15.83;100.00;99836.84;2087247;28;45877;-52
2023/11/09 01:36:14;;;;;;;;;1.00;1.00;;;;;15.86;100.00;99842.03;2091386;28;46770;-47
2023/11/09 01:37:15;;;;;;;;;0.00;0.00;;;;;15.86;100.00;99827.78;2094986;28;46509;-49
2023/11/09 01:38:15;;;;;;;;;1.67;0.00;;;;;15.85;100.00;99826.06;2064930;28;47058;-51
2023/11/09 01:39:15;;;;;;;;;2.00;0.67;;;;;15.86;100.00;99822.44;2084117;28;46680;-52
2023/11/09 01:40:16;;;;;;;;;3.00;2.00;;;;;15.85;100.00;99823.38;2074219;28;46820;-49
2023/11/09 01:41:16;;;;;;;;;1.33;1.00;;;;;15.85;100.00;99826.94;2087225;28;46526;-51
2023/11/09 01:42:17;;;;;;;;;0.00;0.00;;;;;15.84;100.00;99819.84;2076924;28;46033;-52
2023/11/09 01:43:17;;;;;;;;;0.00;0.00;;;;;15.83;100.00;99823.47;2089422;28;46682;-47
2023/11/09 01:44:18;;;;;;;;;0.00;0.00;;;;;15.83;100.00;99811.91;2089362;28;46430;-50
2023/11/09 01:45:18;;;;;;;;;0.33;0.33;;;;;15.82;100.00;99821.75;2068465;28;46521;-49
2023/11/09 01:46:18;;;;;;;;;0.00;0.00;;;;;15.81;100.00;99820.03;2097102;28;46159;-49
2023/11/09 01:47:19;;;;;;;;;2.00;2.00;;;;;15.83;100.00;99820.81;2077862;28;46233;-51
2023/11/09 01:48:21;;;;;;;;;0.00;0.00;;;;;15.84;100.00;99819.00;2100766;28;46735;-51
2023/11/09 01:49:21;;;;;;;;;0.00;0.00;;;;;15.84;100.00;99827.03;2097508;28;46932;-49
2023/11/09 01:50:21;;;;;;;;;1.00;1.00;;;;;15.86;100.00;99827.78;2075034;28;46494;-51
2023/11/09 01:51:22;;;;;;;;;0.00;0.00;;;;;15.88;100.00;99815.22;2090033;28;46359;-50
2023/11/09 01:52:23;;;;;;;;;0.50;0.50;;;;;15.88;100.00;99815.22;2089109;28;46579;-50
2023/11/09 01:53:24;;;;;;;;;0.00;0.00;;;;;15.86;100.00;99809.91;2075723;28;46776;-51
2023/11/09 01:54:26;;;;;;;;;0.25;0.25;;;;;15.86;100.00;99815.28;2094158;28;46436;-49
2023/11/09 01:55:29;;;;;;;;;0.75;0.75;;;;;15.87;100.00;99808.97;2082491;28;45709;-51
2023/11/09 01:56:30;;;;;;;;;0.00;0.00;;;;;15.88;100.00;99812.53;2079838;28;46760;-48
2023/11/09 01:57:32;;;;;;;;;1.00;1.00;;;;;15.87;100.00;99803.63;2093251;28;46857;-52
2023/11/09 01:58:33;;;;;;;;;0.75;0.75;;;;;15.87;100.00;99813.47;2078462;28;47281;-50
2023/11/09 01:59:38;;;;;;;;;0.00;0.00;;;;;15.87;100.00;99802.75;2084967;28;46875;-51
2023/11/09 02:00:42;;;;;;;;;0.75;0.00;;;;;15.87;100.00;99806.28;2094141;28;46751;-52
2023/11/09 02:01:44;;;;;;;;;0.25;0.25;;;;;15.87;100.00;99808.09;2075428;28;46359;-52
2023/11/09 02:02:46;;;;;;;;;0.00;0.00;;;;;15.88;100.00;99812.53;2080439;28;46941;-52
2023/11/09 02:03:47;;;;;;;;;0.75;0.25;;;;;15.87;100.00;99798.25;2092290;28;46931;-52
2023/11/09 02:04:47;;;;;;;;;1.00;0.00;;;;;15.89;100.00;99807.09;2072171;28;46104;-51
2023/11/09 02:05:49;;;;;;;;;0.67;0.67;;;;;15.92;100.00;99805.19;2093190;28;46703;-51
2023/11/09 02:06:53;;;;;;;;;0.75;0.75;;;;;15.93;100.00;99806.91;2086532;28;46978;-52
2023/11/09 02:07:54;;;;;;;;;1.50;1.50;;;;;15.94;100.00;99814.84;2080604;28;46651;-52
2023/11/09 02:08:55;;;;;;;;;0.00;0.00;;;;;15.94;100.00;99805.94;2099908;28;46436;-50
2023/11/09 02:09:55;;;;;;;;;0.00;0.00;;;;;15.94;100.00;99808.63;2080680;28;46386;-49
2023/11/09 02:10:56;;;;;;;;;1.00;1.00;;;;;15.95;100.00;99813.03;2100354;28;45495;-51
2023/11/09 02:11:57;;;;;;;;;0.00;0.00;;;;;15.94;100.00;99806.81;2104625;28;46796;-50
2023/11/09 02:12:58;;;;;;;;;0.75;0.75;;;;;15.92;100.00;99811.41;2087994;28;45810;-51
2023/11/09 02:13:59;;;;;;;;;0.50;0.50;;;;;15.93;100.00;99810.44;2097449;28;46517;-50
2023/11/09 02:14:59;;;;;;;;;0.00;0.00;;;;;15.94;100.00;99811.31;2058302;28;46715;-51
2023/11/09 02:16:01;;;;;;;;;0.33;0.00;;;;;15.95;100.00;99805.00;2073320;28;46423;-49
2023/11/09 02:17:03;;;;;;;;;0.75;0.75;;;;;15.94;100.00;99795.25;2070785;28;46690;-53
2023/11/09 02:18:04;;;;;;;;;0.00;0.00;;;;;15.92;100.00;99794.47;2091478;28;46694;-50
2023/11/09 02:19:05;;;;;;;;;0.00;0.00;;;;;15.92;100.00;99790.00;2084635;27;47220;-50
2023/11/09 02:20:06;;;;;;;;;1.00;0.75;;;;;15.92;100.00;99789.13;2067905;28;46423;-53
2023/11/09 02:21:07;;;;;;;;;1.00;1.00;;;;;15.90;100.00;99797.25;2086699;28;46345;-51
2023/11/09 02:22:08;;;;;;;;;0.00;0.00;;;;;15.89;100.00;99780.34;2073573;28;46526;-50
2023/11/09 02:23:08;;;;;;;;;1.00;1.00;;;;;15.89;100.00;99785.69;2082306;28;46395;-51
2023/11/09 02:24:11;;;;;;;;;0.00;0.00;;;;;15.88;100.00;99788.47;2086082;28;46130;-50
2023/11/09 02:25:12;;;;;;;;;0.50;0.50;;;;;15.87;100.00;99786.69;2062466;28;46239;-52
2023/11/09 02:26:13;;;;;;;;;0.75;0.50;;;;;15.85;100.00;99783.25;2080915;28;46184;-50
2023/11/09 02:27:13;;;;;;;;;0.00;0.00;;;;;15.85;100.00;99788.59;2078173;28;46437;-50
2023/11/09 02:28:14;;;;;;;;;1.00;1.00;;;;;15.85;100.00;99791.28;2069000;28;46238;-49
2023/11/09 02:29:15;;;;;;;;;0.00;0.00;;;;;15.85;100.00;99789.47;2073049;28;46938;-49
2023/11/09 02:30:15;;;;;;;;;0.00;0.00;;;;;15.85;100.00;99789.47;2070265;28;46614;-49
2023/11/09 02:31:15;;;;;;;;;0.00;0.00;;;;;15.86;100.00;99790.34;2075541;28;45884;-51
2023/11/09 02:32:17;;;;;;;;;0.00;0.00;;;;;15.85;100.00;99789.47;2066665;28;45456;-53
2023/11/09 02:33:17;;;;;;;;;0.00;0.00;;;;;15.86;100.00;99793.88;2062004;28;47453;-52
2023/11/09 02:34:23;;;;;;;;;0.67;0.67;;;;;15.86;100.00;99784.97;2066315;28;45535;-52
2023/11/09 02:35:24;;;;;;;;;0.00;0.00;;;;;15.87;100.00;99789.38;2073141;28;46001;-52
2023/11/09 02:36:24;;;;;;;;;0.00;0.00;;;;;15.86;100.00;99787.66;2067056;27;46633;-49
2023/11/09 02:37:25;;;;;;;;;1.00;1.00;;;;;15.86;100.00;99793.88;2063344;28;46233;-51
2023/11/09 02:38:25;;;;;;;;;0.00;0.00;;;;;15.85;100.00;99788.59;2054562;28;46234;-51
2023/11/09 02:39:26;;;;;;;;;0.00;0.00;;;;;15.85;100.00;99785.94;2072603;28;45514;-50
2023/11/09 02:40:28;;;;;;;;;0.00;0.00;;;;;15.85;100.00;99791.28;2073991;28;46877;-48
2023/11/09 02:41:28;;;;;;;;;0.00;0.00;;;;;15.85;100.00;99791.28;2070545;28;46393;-50
2023/11/09 02:42:28;;;;;;;;;1.00;1.00;;;;;15.86;100.00;99784.97;2074524;28;46870;-53
2023/11/09 02:43:29;;;;;;;;;0.67;0.67;;;;;15.86;100.00;99790.34;2094527;28;46563;-49
2023/11/09 02:44:29;;;;;;;;;0.00;0.00;;;;;15.85;100.00;99788.59;2062070;28;46225;-48
2023/11/09 02:45:30;;;;;;;;;0.00;0.00;;;;;15.83;100.00;99791.38;2073826;28;46736;-48
2023/11/09 02:46:30;;;;;;;;;0.67;0.67;;;;;15.83;100.00;99799.41;2070594;28;46631;-49
2023/11/09 02:47:30;;;;;;;;;0.00;0.00;;;;;15.84;100.00;99794.91;2073945;28;46333;-50
2023/11/09 02:48:30;;;;;;;;;0.00;0.00;;;;;15.84;100.00;99808.28;2072773;28;46654;-53
2023/11/09 02:49:32;;;;;;;;;0.00;0.00;;;;;15.84;100.00;99805.63;2062336;28;46660;-50
2023/11/09 02:50:33;;;;;;;;;0.25;0.25;;;;;15.84;100.00;99806.47;2071626;28;46927;-47
2023/11/09 02:51:34;;;;;;;;;0.33;0.33;;;;;15.84;100.00;99810.97;2073916;28;46742;-53
2023/11/09 02:52:34;;;;;;;;;0.00;0.00;;;;;15.85;100.00;99810.88;2112327;27;47082;-52
2023/11/09 02:53:36;;;;;;;;;1.00;1.00;;;;;15.84;100.00;99814.50;2106286;27;46627;-50
2023/11/09 02:54:37;;;;;;;;;0.00;0.00;;;;;15.80;100.00;99804.94;2104113;28;46848;-47
2023/11/09 02:55:38;;;;;;;;;1.00;1.00;;;;;15.81;100.00;99797.78;2110947;27;46573;-52
2023/11/09 02:56:38;;;;;;;;;1.00;1.00;;;;;15.83;100.00;99795.88;2111570;27;45592;-52
2023/11/09 02:57:38;;;;;;;;;1.00;1.00;;;;;15.82;100.00;99800.34;2111815;27;45589;-51
2023/11/09 02:58:40;;;;;;;;;3.00;1.00;;;;;15.82;100.00;99796.81;2112452;27;45760;-52
2023/11/09 02:59:43;;;;;;;;;1.00;1.00;;;;;15.82;100.00;99794.16;2111293;27;46284;-49
2023/11/09 03:00:45;;;;;;;;;1.75;1.75;;;;;15.81;100.00;99793.28;2095624;28;46691;-52
2023/11/09 03:01:45;;;;;;;;;2.00;1.75;;;;;15.81;100.00;99803.13;2100045;28;46154;-49
2023/11/09 03:02:46;;;;;;;;;1.00;1.00;;;;;15.79;100.00;99803.22;2103765;28;46371;-50
2023/11/09 03:03:46;;;;;;;;;1.33;1.33;;;;;15.79;100.00;99797.00;2103343;28;46675;-49
2023/11/09 03:04:47;;;;;;;;;1.33;1.33;;;;;15.80;100.00;99807.63;2104174;28;45877;-52
2023/11/09 03:05:47;;;;;;;;;1.00;1.00;;;;;15.77;100.00;99813.16;2103966;28;46713;-47
2023/11/09 03:06:47;;;;;;;;;3.00;1.00;;;;;15.78;100.00;99811.34;2095282;28;46117;-49
2023/11/09 03:07:48;;;;;;;;;2.00;0.00;;;;;15.79;100.00;99815.72;2095497;28;46675;-51
2023/11/09 03:08:50;;;;;;;;;1.67;1.67;;;;;15.78;100.00;99820.22;2103721;28;46156;-50
2023/11/09 03:09:50;;;;;;;;;2.00;1.00;;;;;15.78;100.00;99817.53;2103022;27;45769;-51
2023/11/09 03:10:51;;;;;;;;;0.67;0.67;;;;;15.78;100.00;99822.91;2093662;28;46821;-49
2023/11/09 03:11:51;;;;;;;;;1.00;1.00;;;;;15.77;100.00;99821.19;2095167;28;46622;-49
2023/11/09 03:12:51;;;;;;;;;2.00;2.00;;;;;15.78;100.00;99811.34;2098031;28;45195;-49
2023/11/09 03:13:51;;;;;;;;;0.67;0.67;;;;;15.78;100.00;99814.00;2103634;28;46920;-51
2023/11/09 03:14:52;;;;;;;;;2.00;2.00;;;;;15.79;100.00;99821.09;2108528;27;46301;-52
2023/11/09 03:15:52;;;;;;;;;1.00;1.00;;;;;15.78;100.00;99819.38;2094503;28;46052;-52
2023/11/09 03:16:53;;;;;;;;;1.67;1.67;;;;;15.80;100.00;99830.84;2092288;28;46748;-52
2023/11/09 03:17:54;;;;;;;;;1.33;1.33;;;;;15.79;100.00;99821.09;2108590;27;46411;-51
2023/11/09 03:18:54;;;;;;;;;2.00;2.00;;;;;15.80;100.00;99825.47;2111930;27;46950;-51
2023/11/09 03:19:54;;;;;;;;;2.00;2.00;;;;;15.80;100.00;99830.84;2108447;27;46519;-48
2023/11/09 03:20:54;;;;;;;;;0.33;0.33;;;;;15.80;100.00;99825.47;2109720;27;46469;-51
2023/11/09 03:21:55;;;;;;;;;2.00;1.33;;;;;15.81;100.00;99824.53;2111024;27;46757;-51
2023/11/09 03:22:56;;;;;;;;;1.33;1.33;;;;;15.80;100.00;99814.78;2108191;27;46742;-52
2023/11/09 03:23:56;;;;;;;;;2.00;2.00;;;;;15.80;100.00;99818.31;2109088;27;46353;-51
2023/11/09 03:24:56;;;;;;;;;1.00;1.00;;;;;15.80;100.00;99812.97;2076778;28;46733;-52
2023/11/09 03:25:57;;;;;;;;;1.00;1.00;;;;;15.80;100.00;99806.75;2098907;28;46801;-46
2023/11/09 03:26:57;;;;;;;;;2.00;2.00;;;;;15.78;100.00;99798.81;2070041;28;46338;-45
2023/11/09 03:27:57;;;;;;;;;1.67;1.67;;;;;15.78;100.00;99812.19;2064232;28;46487;-45
2023/11/09 03:28:57;;;;;;;;;0.67;0.67;;;;;15.78;100.00;99805.97;2080037;28;46665;-51
2023/11/09 03:29:58;;;;;;;;;1.33;1.00;;;;;15.78;100.00;99814.88;2076333;28;46658;-54
2023/11/09 03:30:59;;;;;;;;;0.00;0.00;;;;;15.79;100.00;99815.72;2085310;28;46375;-49
2023/11/09 03:31:59;;;;;;;;;3.00;1.00;;;;;15.80;100.00;99809.44;2073366;28;45668;-49
2023/11/09 03:32:59;;;;;;;;;3.00;2.33;;;;;15.79;100.00;99815.72;2083553;28;46372;-48
2023/11/09 03:34:00;;;;;;;;;2.00;1.00;;;;;15.80;100.00;99821.00;2085822;28;46888;-52
2023/11/09 03:35:01;;;;;;;;;4.00;2.00;;;;;15.81;100.00;99816.50;2070819;28;45780;-54
2023/11/09 03:36:01;;;;;;;;;1.75;1.75;;;;;15.80;100.00;99823.66;2086208;28;46521;-50
2023/11/09 03:37:01;;;;;;;;;2.00;2.00;;;;;15.83;100.00;99831.50;2079218;28;46151;-47
2023/11/09 03:38:03;;;;;;;;;3.00;2.00;;;;;15.83;100.00;99833.31;2068775;28;45573;-48
2023/11/09 03:39:04;;;;;;;;;2.25;1.75;;;;;15.83;100.00;99830.66;2087572;28;47048;-45
2023/11/09 03:40:07;;;;;;;;;1.00;0.33;;;;;15.86;100.00;99838.50;2073332;28;46444;-49
2023/11/09 03:41:10;;;;;;;;;0.75;0.75;;;;;15.86;100.00;99833.13;2082151;28;46163;-48
2023/11/09 03:42:11;;;;;;;;;2.25;1.25;;;;;15.85;100.00;99828.75;2070145;28;46346;-51
2023/11/09 03:43:12;;;;;;;;;2.00;2.00;;;;;15.86;100.00;99836.69;2071097;28;46263;-51
2023/11/09 03:44:12;;;;;;;;;1.00;0.00;;;;;15.86;100.00;99825.13;2087258;27;46723;-50
2023/11/09 03:45:13;;;;;;;;;1.33;0.67;;;;;15.87;100.00;99829.50;2075322;28;46495;-51
2023/11/09 03:46:14;;;;;;;;;1.33;1.33;;;;;15.88;100.00;99823.25;2074340;28;46657;-48
2023/11/09 03:47:15;;;;;;;;;1.67;1.00;;;;;15.88;100.00;99824.09;2096735;28;46696;-51
2023/11/09 03:48:15;;;;;;;;;2.00;2.00;;;;;15.88;100.00;99824.09;2089804;28;45979;-54
2023/11/09 03:49:16;;;;;;;;;1.67;1.67;;;;;15.88;100.00;99818.75;2081908;28;46592;-51
2023/11/09 03:50:16;;;;;;;;;2.00;2.00;;;;;15.87;100.00;99822.34;2088457;28;47081;-51
2023/11/09 03:51:16;;;;;;;;;1.00;1.00;;;;;15.87;100.00;99822.34;2071441;28;46391;-50
2023/11/09 03:52:17;;;;;;;;;0.00;0.00;;;;;15.87;100.00;99826.84;2084321;28;46715;-49
2023/11/09 03:53:18;;;;;;;;;1.00;1.00;;;;;15.86;100.00;99825.13;2081461;28;46637;-50
2023/11/09 03:54:18;;;;;;;;;1.00;1.00;;;;;15.84;100.00;99819.00;2073556;28;45530;-50
2023/11/09 03:55:19;;;;;;;;;3.33;1.33;;;;;15.83;100.00;99826.16;2065796;28;46711;-48
2023/11/09 03:56:21;;;;;;;;;2.33;0.67;;;;;15.83;100.00;99830.66;2063802;28;46677;-49
2023/11/09 03:57:22;;;;;;;;;2.75;1.25;;;;;15.81;100.00;99825.38;2068095;28;46477;-54
2023/11/09 03:58:22;;;;;;;;;1.00;1.00;;;;;15.81;100.00;99830.75;2081597;28;46931;-47
2023/11/09 03:59:22;;;;;;;;;3.00;1.33;;;;;15.81;100.00;99821.84;2060469;28;46200;-47
2023/11/09 04:00:23;;;;;;;;;2.67;2.67;;;;;15.81;100.00;99809.34;2083622;28;46792;-48
2023/11/09 04:01:24;;;;;;;;;3.00;1.67;;;;;15.82;100.00;99820.91;2085861;27;46809;-50
2023/11/09 04:02:24;;;;;;;;;2.00;2.00;;;;;15.81;100.00;99817.38;2067945;28;46592;-52
2023/11/09 04:03:24;;;;;;;;;1.00;1.00;;;;;15.84;100.00;99816.31;2083352;28;46867;-50
2023/11/09 04:04:25;;;;;;;;;2.33;0.67;;;;;15.83;100.00;99807.44;2074179;28;46337;-51
2023/11/09 04:05:25;;;;;;;;;1.33;1.33;;;;;15.83;100.00;99807.44;2081637;28;46514;-52
2023/11/09 04:06:25;;;;;;;;;1.00;1.00;;;;;15.84;100.00;99806.47;2077684;28;47034;-47
2023/11/09 04:07:26;;;;;;;;;1.00;1.00;;;;;15.84;100.00;99800.25;2071702;28;45884;-49
2023/11/09 04:08:26;;;;;;;;;3.00;1.67;;;;;15.84;100.00;99809.16;2087455;28;46575;-53
2023/11/09 04:09:27;;;;;;;;;2.33;1.33;;;;;15.84;100.00;99811.81;2105024;28;46623;-50
2023/11/09 04:10:27;;;;;;;;;2.00;2.00;;;;;15.82;100.00;99818.22;2058454;28;46301;-51
2023/11/09 04:11:27;;;;;;;;;1.67;1.67;;;;;15.81;100.00;99812.00;2047133;28;46893;-50
2023/11/09 04:12:28;;;;;;;;;1.00;1.00;;;;;15.82;100.00;99816.41;2058429;28;46676;-53
2023/11/09 04:13:30;;;;;;;;;2.33;1.67;;;;;15.81;100.00;99813.81;2055109;28;46452;-52
2023/11/09 04:14:30;;;;;;;;;1.50;1.00;;;;;15.81;100.00;99811.16;2068310;28;46154;-52
2023/11/09 04:15:31;;;;;;;;;2.00;2.00;;;;;15.81;100.00;99811.16;2063537;28;46796;-50
2023/11/09 04:16:31;;;;;;;;;1.00;1.00;;;;;15.80;100.00;99812.97;2080270;28;46354;-51
2023/11/09 04:17:32;;;;;;;;;1.67;1.67;;;;;15.80;100.00;99806.75;2079615;28;46246;-49
2023/11/09 04:18:33;;;;;;;;;2.50;0.75;;;;;15.79;100.00;99808.56;2062509;28;46844;-49
2023/11/09 04:19:33;;;;;;;;;2.33;2.00;;;;;15.79;100.00;99813.91;2090820;28;46706;-49
2023/11/09 04:20:34;;;;;;;;;1.00;1.00;;;;;15.80;100.00;99812.09;2102778;27;45928;-52
2023/11/09 04:21:35;;;;;;;;;0.67;0.67;;;;;15.80;100.00;99812.09;2106100;28;46256;-51
2023/11/09 04:22:35;;;;;;;;;2.75;2.75;;;;;15.78;100.00;99817.53;2101645;28;46771;-53
2023/11/09 04:23:37;;;;;;;;;0.67;0.67;;;;;15.78;100.00;99814.00;2105449;28;46073;-49
2023/11/09 04:24:37;;;;;;;;;2.25;2.25;;;;;15.78;100.00;99822.91;2084135;27;46623;-51
2023/11/09 04:25:37;;;;;;;;;1.00;1.00;;;;;15.78;100.00;99828.25;2074534;28;46615;-49
2023/11/09 04:26:38;;;;;;;;;1.33;1.33;;;;;15.79;100.00;99827.28;2065012;28;46823;-53
2023/11/09 04:27:38;;;;;;;;;0.67;0.67;;;;;15.78;100.00;99830.94;2091627;28;46494;-53
2023/11/09 04:28:39;;;;;;;;;2.67;2.00;;;;;15.79;100.00;99829.09;2093421;28;46102;-51
2023/11/09 04:29:41;;;;;;;;;1.33;1.33;;;;;15.80;100.00;99837.03;2105577;27;46303;-51
2023/11/09 04:30:42;;;;;;;;;3.50;2.75;;;;;15.79;100.00;99835.31;2103090;27;46595;-51
2023/11/09 04:31:47;;;;;;;;;2.67;1.33;;;;;15.82;100.00;99842.31;2062751;28;45699;-52
2023/11/09 04:32:51;;;;;;;;;1.75;0.75;;;;;15.81;100.00;99844.13;2103402;28;46596;-49
2023/11/09 04:34:01;;;;;;;;;2.25;0.75;;;;;15.82;100.00;99845.84;2102822;28;46013;-49
2023/11/09 04:35:04;;;;;;;;;3.50;3.00;;;;;15.82;100.00;99843.16;2104148;28;46794;-52
2023/11/09 04:36:08;;;;;;;;;2.00;1.50;;;;;15.82;100.00;99850.31;2055720;28;46820;-49
2023/11/09 04:37:11;;;;;;;;;2.50;2.00;;;;;15.80;100.00;99850.41;2074406;28;46732;-49
2023/11/09 04:38:15;;;;;;;;;1.25;1.25;;;;;15.82;100.00;99853.88;2054288;28;45761;-51
2023/11/09 04:39:27;;;;;;;;;0.75;0.75;;;;;15.81;100.00;99849.47;2102934;28;47352;-50
2023/11/09 04:40:29;;;;;;;;;2.00;1.00;;;;;15.81;100.00;99856.63;2102665;28;46183;-50
2023/11/09 04:41:29;;;;;;;;;3.00;1.00;;;;;15.80;100.00;99849.56;2105072;28;46610;-51
2023/11/09 04:42:29;;;;;;;;;2.33;2.33;;;;;15.79;100.00;99848.69;2104703;28;45695;-50
2023/11/09 04:43:30;;;;;;;;;2.00;2.00;;;;;15.79;100.00;99851.38;2103927;28;45810;-51